Time;durP1;ratioP1;P1;durP2;ratioP2;P2;SDS_P1;SDS_P2;PMS_P1;PMS_P2;Temp;Humidity;BMP_temperature;BMP_pressure;BME280_temperature;BME280_humidity;BME280_pressure;Samples;Min_cycle;Max_cycle;Signal;HPM_P1;HPM_P2
2022/09/26 00:01:08;;;;;;;17.85;13.85;;;;;;;12.33;72.44;99392.43;1822331;76;21036;-75
2022/09/26 00:03:35;;;;;;;17.30;13.55;;;;;;;12.32;72.43;99403.60;1827843;76;21096;-76
2022/09/26 00:06:07;;;;;;;17.73;13.50;;;;;;;12.31;72.57;99405.94;1810380;76;21072;-76
2022/09/26 00:08:35;;;;;;;14.85;13.10;;;;;;;12.27;72.68;99403.33;1813081;76;21020;-76
2022/09/26 00:11:06;;;;;;;15.08;12.73;;;;;;;12.23;72.76;99401.20;1805524;77;21037;-73
2022/09/26 00:13:37;;;;;;;14.60;11.85;;;;;;;12.20;72.90;99401.08;1807328;77;21526;-75
2022/09/26 00:16:05;;;;;;;14.20;12.05;;;;;;;12.25;72.72;99408.53;1808995;77;21782;-75
2022/09/26 00:18:32;;;;;;;16.97;12.55;;;;;;;12.33;72.24;99406.56;1793481;77;21029;-76
2022/09/26 00:21:08;;;;;;;14.65;12.25;;;;;;;12.32;72.23;99410.74;1803773;79;21092;-75
2022/09/26 00:23:36;;;;;;;12.00;10.72;;;;;;;12.28;72.24;99410.28;1821624;77;21000;-76
2022/09/26 00:26:02;;;;;;;14.93;11.73;;;;;;;12.28;72.45;99415.62;1816316;77;21026;-75
2022/09/26 00:28:29;;;;;;;12.78;10.98;;;;;;;12.26;72.74;99414.16;1814618;77;21264;-76
2022/09/26 00:30:55;;;;;;;12.13;10.82;;;;;;;12.21;73.11;99410.73;1810092;77;21003;-75
2022/09/26 00:33:23;;;;;;;11.30;10.18;;;;;;;12.14;73.17;99404.50;1813764;77;21004;-76
2022/09/26 00:35:52;;;;;;;11.40;10.20;;;;;;;12.19;73.44;99399.45;1798471;77;21053;-77
2022/09/26 00:38:19;;;;;;;14.18;9.98;;;;;;;12.26;73.32;99391.52;1814410;77;21112;-76
2022/09/26 00:40:46;;;;;;;11.97;9.60;;;;;;;12.24;73.53;99393.03;1813601;77;21305;-76
2022/09/26 00:43:34;;;;;;;11.57;10.05;;;;;;;12.21;73.57;99390.77;1798830;79;20986;-79
2022/09/26 00:46:36;;;;;;;12.45;10.38;;;;;;;12.18;73.79;99389.80;1803820;77;20981;-77
2022/09/26 00:49:31;;;;;;;12.20;10.03;;;;;;;12.13;73.89;99394.84;1812015;77;21018;-76
2022/09/26 00:52:05;;;;;;;10.45;9.30;;;;;;;12.06;74.36;99400.62;1814244;77;21132;-76
2022/09/26 00:54:33;;;;;;;12.10;9.18;;;;;;;12.08;74.62;99386.61;1803050;77;21190;-75
2022/09/26 00:57:04;;;;;;;10.45;9.35;;;;;;;12.12;74.36;99393.21;1766802;79;21100;-77
2022/09/26 00:59:38;;;;;;;10.00;8.55;;;;;;;12.05;74.45;99382.98;1816032;77;21027;-77
2022/09/26 01:02:04;;;;;;;12.18;9.70;;;;;;;11.98;74.48;99386.39;1792788;79;21045;-75
2022/09/26 01:04:33;;;;;;;10.32;9.33;;;;;;;11.94;74.70;99390.95;1766928;79;21021;-77
2022/09/26 01:07:01;;;;;;;10.65;9.23;;;;;;;11.86;74.58;99394.51;1819219;77;21141;-77
2022/09/26 01:09:28;;;;;;;10.63;8.93;;;;;;;11.83;74.93;99395.38;1797142;77;21525;-77
2022/09/26 01:11:55;;;;;;;11.15;9.20;;;;;;;11.92;74.62;99389.80;1816566;77;21296;-76
2022/09/26 01:14:22;;;;;;;9.30;8.38;;;;;;;11.92;74.72;99383.66;1796503;77;21003;-74
2022/09/26 01:16:50;;;;;;;9.35;8.33;;;;;;;11.88;74.70;99380.50;1806815;77;21082;-77
2022/09/26 01:19:28;;;;;;;14.33;8.95;;;;;;;11.85;74.73;99385.38;1818435;78;21730;-76
2022/09/26 01:22:34;;;;;;;12.50;9.08;;;;;;;11.82;74.81;99385.25;1818036;79;21045;-76
2022/09/26 01:25:34;;;;;;;10.05;8.33;;;;;;;11.78;74.96;99382.13;1798090;77;21065;-76
2022/09/26 01:28:58;;;;;;;11.22;9.25;;;;;;;11.87;75.12;99372.70;1738905;77;21039;-74
2022/09/26 01:32:47;;;;;;;11.60;8.50;;;;;;;11.83;75.23;99369.58;1798894;77;21567;-75
2022/09/26 01:34:30;;;;;;;9.85;8.78;;;;;;;11.74;75.17;99379.52;1814342;77;21164;-76
2022/09/26 01:37:13;;;;;;;10.40;8.20;;;;;;;11.69;75.82;99377.91;1799880;77;21109;-76
2022/09/26 01:39:56;;;;;;;9.27;7.37;;;;;;;11.71;76.16;99380.38;1803999;77;21259;-76
2022/09/26 01:42:40;;;;;;;9.95;8.00;;;;;;;11.76;75.88;99380.63;1812172;78;21578;-75
2022/09/26 01:45:21;;;;;;;9.83;8.73;;;;;;;11.71;76.09;99385.70;1753095;80;21108;-76
2022/09/26 01:48:00;;;;;;;9.50;8.55;;;;;;;11.63;76.69;99387.95;1798463;78;21103;-75
2022/09/26 01:50:37;;;;;;;9.85;8.08;;;;;;;11.57;77.11;99392.17;1805239;79;21066;-77
2022/09/26 01:53:29;;;;;;;9.35;7.92;;;;;;;11.63;76.99;99385.30;1747463;80;21132;-77
2022/09/26 01:56:07;;;;;;;9.95;8.05;;;;;;;11.60;77.30;99385.64;1782825;77;21082;-77
2022/09/26 01:58:42;;;;;;;9.63;8.63;;;;;;;11.50;77.42;99383.77;1796186;77;21494;-74
2022/09/26 02:01:11;;;;;;;8.25;7.22;;;;;;;11.41;77.94;99385.20;1777752;77;21038;-77
2022/09/26 02:03:57;;;;;;;11.73;8.28;;;;;;;11.45;78.10;99378.98;1789445;77;21106;-77
2022/09/26 02:06:30;;;;;;;9.35;8.15;;;;;;;11.50;77.92;99369.95;1799187;78;21058;-77
2022/09/26 02:09:02;;;;;;;8.48;7.58;;;;;;;11.45;77.95;99364.86;1783824;77;21540;-79
2022/09/26 02:11:29;;;;;;;9.53;8.25;;;;;;;11.40;78.39;99373.41;1784469;79;21106;-79
2022/09/26 02:14:04;;;;;;;8.45;7.55;;;;;;;11.35;78.71;99373.93;1803545;77;21200;-79
2022/09/26 02:16:53;;;;;;;8.95;6.78;;;;;;;11.40;79.14;99373.41;1799586;77;21097;-78
2022/09/26 02:19:26;;;;;;;7.28;6.58;;;;;;;11.50;78.82;99371.29;1796792;77;21560;-79
2022/09/26 02:21:53;;;;;;;7.90;7.10;;;;;;;11.47;79.28;99377.47;1753484;79;21089;-77
2022/09/26 02:24:21;;;;;;;9.63;8.50;;;;;;;11.40;79.51;99373.41;1780736;77;22186;-77
2022/09/26 02:26:51;;;;;;;9.08;7.40;;;;;;;11.34;79.75;99374.14;1806209;77;21123;-78
2022/09/26 02:29:19;;;;;;;8.65;7.22;;;;;;;11.37;79.77;99365.78;1806181;79;21023;-78
2022/09/26 02:32:11;;;;;;;8.20;7.40;;;;;;;11.40;79.59;99367.57;1783023;79;21078;-78
2022/09/26 02:34:40;;;;;;;8.80;7.95;;;;;;;11.36;80.05;99380.09;1805426;77;21522;-78
2022/09/26 02:37:06;;;;;;;8.43;7.08;;;;;;;11.27;80.25;99371.36;1808456;77;21117;-77
2022/09/26 02:39:34;;;;;;;7.55;6.65;;;;;;;11.29;80.54;99367.20;1797312;77;21111;-79
2022/09/26 02:42:30;;;;;;;9.83;8.08;;;;;;;11.34;80.62;99366.16;1794887;78;21066;-78
2022/09/26 02:45:41;;;;;;;8.88;7.83;;;;;;;11.28;80.70;99365.05;1804283;77;21550;-75
2022/09/26 02:48:31;;;;;;;9.73;7.40;;;;;;;11.18;81.12;99362.66;1785168;78;21015;-77
2022/09/26 02:51:26;;;;;;;9.28;7.25;;;;;;;11.15;81.32;99360.34;1794078;77;21046;-75
2022/09/26 02:54:02;;;;;;;9.90;8.33;;;;;;;11.24;81.30;99362.92;1804807;78;21139;-75
2022/09/26 02:56:58;;;;;;;8.98;7.58;;;;;;;11.16;81.57;99363.34;1789632;78;21011;-76
2022/09/26 03:00:10;;;;;;;9.63;6.78;;;;;;;11.09;82.04;99364.25;1784642;77;21066;-76
2022/09/26 03:03:20;;;;;;;7.60;6.90;;;;;;;11.12;82.25;99358.55;1812103;77;21530;-75
2022/09/26 03:05:46;;;;;;;9.48;7.40;;;;;;;11.15;82.35;99351.55;1816887;79;21088;-77
2022/09/26 03:08:17;;;;;;;8.03;7.22;;;;;;;11.08;82.92;99346.63;1815923;77;21221;-76
2022/09/26 03:10:44;;;;;;;7.80;6.78;;;;;;;11.01;83.01;99346.03;1817015;77;21045;-75
2022/09/26 03:13:13;;;;;;;8.43;7.40;;;;;;;11.07;82.77;99341.83;1790628;77;21037;-76
2022/09/26 03:15:43;;;;;;;8.73;7.60;;;;;;;11.13;82.87;99338.44;1797659;77;21107;-74
2022/09/26 03:18:14;;;;;;;7.95;7.15;;;;;;;11.12;82.94;99335.44;1798134;77;21494;-76
2022/09/26 03:20:41;;;;;;;11.15;7.47;;;;;;;11.11;83.19;99332.98;1790771;77;21210;-74
2022/09/26 03:23:08;;;;;;;9.50;6.47;;;;;;;11.09;83.36;99330.50;1789398;77;21602;-76
2022/09/26 03:25:35;;;;;;;9.45;6.53;;;;;;;11.16;83.19;99328.78;1782053;77;21061;-78
2022/09/26 03:28:04;;;;;;;8.28;7.42;;;;;;;11.30;82.78;99324.95;1783910;78;21044;-77
2022/09/26 03:30:31;;;;;;;8.38;7.37;;;;;;;11.29;82.78;99321.99;1788709;77;21074;-75
2022/09/26 03:33:02;;;;;;;11.18;8.00;;;;;;;11.24;82.92;99325.69;1759626;78;21238;-78
2022/09/26 03:35:29;;;;;;;7.78;6.97;;;;;;;11.19;83.36;99327.07;1784296;77;21062;-78
2022/09/26 03:37:55;;;;;;;8.68;7.80;;;;;;;11.21;83.52;99324.23;1805436;77;21022;-76
2022/09/26 03:40:22;;;;;;;7.92;7.12;;;;;;;11.29;83.58;99329.97;1791827;77;21067;-74
2022/09/26 03:42:53;;;;;;;8.73;7.80;;;;;;;11.27;83.89;99328.00;1801619;77;21070;-76
2022/09/26 03:45:19;;;;;;;11.53;8.58;;;;;;;11.25;84.20;99330.02;1801508;77;21101;-75
2022/09/26 03:47:56;;;;;;;11.50;8.05;;;;;;;11.21;84.63;99336.20;1785726;77;21050;-75
2022/09/26 03:50:24;;;;;;;10.08;7.08;;;;;;;11.26;84.93;99338.30;1787122;77;21021;-77
2022/09/26 03:52:51;;;;;;;10.95;7.87;;;;;;;11.34;84.57;99336.91;1779753;77;21070;-75
2022/09/26 03:55:17;;;;;;;10.28;8.75;;;;;;;11.29;85.12;99340.61;1801458;78;21147;-75
2022/09/26 03:57:45;;;;;;;9.38;7.90;;;;;;;11.19;85.84;99351.00;1804507;77;21534;-76
2022/09/26 04:00:13;;;;;;;9.30;7.47;;;;;;;11.13;86.03;99350.91;1798235;77;21041;-76
2022/09/26 04:02:44;;;;;;;9.55;7.80;;;;;;;11.15;85.87;99345.73;1791603;77;21054;-77
2022/09/26 04:05:13;;;;;;;9.73;8.03;;;;;;;11.10;85.87;99346.77;1794250;78;21026;-75
2022/09/26 04:07:39;;;;;;;9.08;7.33;;;;;;;10.99;86.20;99345.87;1790409;78;21086;-76
2022/09/26 04:10:07;;;;;;;8.20;7.05;;;;;;;10.91;86.53;99332.16;1799402;78;21533;-76
2022/09/26 04:12:34;;;;;;;9.25;8.15;;;;;;;11.00;86.59;99335.58;1793278;78;21149;-75
2022/09/26 04:15:05;;;;;;;10.28;8.93;;;;;;;10.93;87.09;99330.65;1804121;78;21046;-77
2022/09/26 04:17:32;;;;;;;10.75;9.60;;;;;;;10.89;87.43;99327.52;1799835;78;21667;-76
2022/09/26 04:20:01;;;;;;;10.80;8.03;;;;;;;10.87;87.58;99324.73;1799236;78;20995;-76
2022/09/26 04:22:27;;;;;;;11.70;8.95;;;;;;;10.94;87.30;99327.00;1766647;80;21529;-75
2022/09/26 04:24:53;;;;;;;10.93;9.35;;;;;;;11.06;87.43;99324.20;1813350;77;20969;-76
2022/09/26 04:27:27;;;;;;;11.45;10.25;;;;;;;11.11;87.76;99317.86;1799772;77;21036;-75
2022/09/26 04:29:56;;;;;;;13.10;10.93;;;;;;;11.12;88.05;99316.02;1821182;78;20986;-74
2022/09/26 04:32:24;;;;;;;9.75;8.75;;;;;;;11.13;88.13;99321.67;1815152;78;20966;-75
2022/09/26 04:34:52;;;;;;;11.85;9.73;;;;;;;11.20;88.16;99319.43;1816316;77;21294;-75
2022/09/26 04:37:19;;;;;;;11.83;10.23;;;;;;;11.33;87.93;99325.42;1812556;77;21461;-76
2022/09/26 04:39:47;;;;;;;12.78;10.80;;;;;;;11.32;87.97;99327.78;1826996;78;21077;-75
2022/09/26 04:42:13;;;;;;;11.33;10.08;;;;;;;11.28;88.08;99322.98;1793165;78;21010;-78
2022/09/26 04:44:42;;;;;;;11.08;9.88;;;;;;;11.24;88.19;99329.17;1824217;77;21489;-77
2022/09/26 04:47:10;;;;;;;10.38;9.28;;;;;;;11.30;87.92;99323.63;1824031;77;21068;-74
2022/09/26 04:49:55;;;;;;;11.60;10.25;;;;;;;11.35;87.51;99322.58;1822239;77;20998;-76
2022/09/26 04:52:22;;;;;;;11.55;10.35;;;;;;;11.28;87.55;99315.01;1799786;77;21065;-76
2022/09/26 04:54:48;;;;;;;10.58;9.55;;;;;;;11.25;87.73;99316.72;1795685;78;21481;-77
2022/09/26 04:57:15;;;;;;;11.38;10.10;;;;;;;11.30;87.82;99316.98;1826100;77;21072;-75
2022/09/26 04:59:42;;;;;;;11.60;9.80;;;;;;;11.39;87.69;99314.05;1774870;78;21239;-75
2022/09/26 05:02:09;;;;;;;15.25;10.68;;;;;;;11.39;87.95;99317.22;1818527;77;21084;-75
2022/09/26 05:04:38;;;;;;;12.03;10.75;;;;;;;11.38;88.16;99318.24;1812136;78;21041;-78
2022/09/26 05:07:05;;;;;;;11.78;9.75;;;;;;;11.37;88.06;99320.05;1817712;77;21033;-76
2022/09/26 05:09:32;;;;;;;9.85;8.85;;;;;;;11.43;88.38;99323.00;1807482;77;21022;-78
2022/09/26 05:12:04;;;;;;;10.72;9.73;;;;;;;11.54;87.74;99329.19;1810937;77;21200;-76
2022/09/26 05:14:34;;;;;;;12.05;9.25;;;;;;;11.56;87.86;99335.15;1817184;79;21529;-75
2022/09/26 05:17:00;;;;;;;12.07;10.78;;;;;;;11.53;87.38;99330.19;1816552;77;21522;-75
2022/09/26 05:19:27;;;;;;;10.55;8.60;;;;;;;11.49;87.38;99329.75;1808946;79;21057;-76
2022/09/26 05:22:05;;;;;;;10.82;8.98;;;;;;;11.55;87.36;99321.52;1804520;77;21029;-77
2022/09/26 05:27:17;;;;;;;13.05;11.03;;;;;;;11.59;87.13;99313.00;1809397;77;21077;-77
2022/09/26 05:29:44;;;;;;;10.85;9.75;;;;;;;11.58;87.36;99319.31;1792841;79;21030;-78
2022/09/26 05:32:12;;;;;;;10.70;8.90;;;;;;;11.58;87.54;99313.17;1810076;77;21054;-78
2022/09/26 05:34:39;;;;;;;10.65;9.65;;;;;;;11.64;87.18;99319.08;1806711;79;21001;-80
2022/09/26 05:37:06;;;;;;;12.47;10.20;;;;;;;11.70;87.28;99314.34;1803827;77;21231;-78
2022/09/26 05:42:18;;;;;;;12.60;10.90;;;;;;;11.73;87.63;99307.84;1812346;77;21058;-78
2022/09/26 05:44:44;;;;;;;13.98;9.68;;;;;;;11.69;87.48;99302.06;1807362;77;21252;-78
2022/09/26 05:47:11;;;;;;;12.15;9.60;;;;;;;11.79;87.54;99309.23;1804776;79;21039;-78
2022/09/26 05:49:40;;;;;;;11.08;9.93;;;;;;;11.92;87.42;99306.47;1792229;77;21276;-78
2022/09/26 05:52:08;;;;;;;13.93;11.08;;;;;;;11.95;87.54;99302.90;1805660;77;21615;-78
2022/09/26 05:54:34;;;;;;;12.55;10.68;;;;;;;11.92;87.65;99295.30;1798944;77;21121;-78
2022/09/26 05:57:03;;;;;;;11.60;10.40;;;;;;;11.86;87.60;99293.37;1797024;77;21086;-79
2022/09/26 05:59:32;;;;;;;11.90;10.30;;;;;;;11.90;87.72;99290.67;1807977;77;21002;-76
2022/09/26 06:02:17;;;;;;;12.60;10.65;;;;;;;12.00;87.68;99291.70;1816284;77;21127;-77
2022/09/26 06:04:48;;;;;;;13.00;10.63;;;;;;;11.97;87.34;99296.06;1813256;77;22158;-76
2022/09/26 06:07:32;;;;;;;;;;;;;;;11.90;87.66;99303.14;1808962;77;22133;-75
2022/09/26 06:09:58;;;;;;;12.68;10.95;;;;;;;11.81;87.76;99311.20;1816995;78;20278;-75
2022/09/26 06:12:34;;;;;;;11.33;10.23;;;;;;;11.77;87.81;99307.27;1817476;77;21049;-77
2022/09/26 06:15:04;;;;;;;12.80;11.00;;;;;;;11.85;87.70;99315.66;1792725;79;21030;-76
2022/09/26 06:17:31;;;;;;;13.40;11.15;;;;;;;11.80;87.63;99312.23;1815381;77;21081;-76
2022/09/26 06:19:57;;;;;;;17.20;11.95;;;;;;;11.73;87.84;99315.83;1806022;77;21026;-75
2022/09/26 06:22:25;;;;;;;17.92;11.68;;;;;;;11.66;88.26;99317.57;1801751;77;21104;-75
2022/09/26 06:24:52;;;;;;;14.87;11.03;;;;;;;11.67;88.64;99316.58;1813731;77;21081;-76
2022/09/26 06:27:21;;;;;;;13.83;10.70;;;;;;;11.71;88.80;99312.02;1816865;79;21317;-76
2022/09/26 06:29:50;;;;;;;14.05;11.90;;;;;;;11.75;88.71;99315.13;1816107;77;21533;-76
2022/09/26 06:32:16;;;;;;;15.25;11.03;;;;;;;11.71;88.76;99321.33;1801812;77;21096;-76
2022/09/26 06:34:45;;;;;;;15.05;10.65;;;;;;;11.68;88.42;99327.52;1810412;79;21509;-77
2022/09/26 06:37:22;;;;;;;15.03;10.48;;;;;;;11.74;88.07;99324.96;1810656;77;21006;-75
2022/09/26 06:39:49;;;;;;;12.58;10.70;;;;;;;11.77;87.76;99317.92;1810816;79;21189;-76
2022/09/26 06:42:15;;;;;;;12.43;10.00;;;;;;;11.75;87.91;99313.29;1803979;77;21018;-76
2022/09/26 06:44:50;;;;;;;11.18;9.85;;;;;;;11.72;87.65;99309.66;1804075;77;21544;-76
2022/09/26 06:47:23;;;;;;;12.80;10.08;;;;;;;11.79;87.63;99296.45;1811647;77;21533;-75
2022/09/26 06:49:51;;;;;;;11.55;10.35;;;;;;;11.91;87.40;99298.15;1812058;77;21076;-75
2022/09/26 06:52:22;;;;;;;12.33;10.40;;;;;;;11.92;87.29;99306.47;1787617;78;21942;-75
2022/09/26 06:54:49;;;;;;;15.75;11.00;;;;;;;11.88;86.67;99315.30;1789440;79;21535;-76
2022/09/26 06:57:15;;;;;;;13.03;9.95;;;;;;;11.88;86.46;99321.95;1794633;77;21058;-75
2022/09/26 06:59:42;;;;;;;17.02;11.08;;;;;;;11.93;86.14;99322.74;1794498;77;21047;-75
2022/09/26 07:02:11;;;;;;;13.53;10.30;;;;;;;11.87;85.54;99328.78;1789246;77;21195;-75
2022/09/26 07:04:56;;;;;;;11.88;9.28;;;;;;;11.81;85.50;99330.35;1803893;77;21126;-78
2022/09/26 07:07:26;;;;;;;14.58;10.23;;;;;;;11.77;85.36;99331.73;1800157;77;21050;-75
2022/09/26 07:09:55;;;;;;;12.63;10.28;;;;;;;11.84;85.07;99326.00;1791068;77;21057;-76
2022/09/26 07:12:45;;;;;;;11.97;9.68;;;;;;;11.85;85.46;99322.83;1783212;79;21089;-76
2022/09/26 07:15:17;;;;;;;12.18;10.68;;;;;;;11.81;84.88;99326.36;1787117;78;21112;-77
2022/09/26 07:17:47;;;;;;;10.68;8.30;;;;;;;11.77;84.46;99321.91;1811904;77;21092;-76
2022/09/26 07:20:33;;;;;;;12.00;8.73;;;;;;;11.81;83.66;99325.03;1809039;77;21100;-76
2022/09/26 07:23:09;;;;;;;10.95;9.55;;;;;;;11.88;83.28;99324.61;1804951;77;21023;-76
2022/09/26 07:25:38;;;;;;;9.78;8.73;;;;;;;11.83;82.81;99328.33;1794022;77;21091;-75
2022/09/26 07:28:06;;;;;;;10.00;8.15;;;;;;;11.77;82.27;99317.10;1820144;77;21057;-75
2022/09/26 07:30:47;;;;;;;9.40;8.43;;;;;;;11.75;83.06;99322.61;1820058;77;21066;-75
2022/09/26 07:33:19;;;;;;;10.72;9.15;;;;;;;11.86;82.92;99309.34;1816325;77;21089;-76
2022/09/26 07:35:48;;;;;;;11.00;9.55;;;;;;;11.83;82.67;99312.36;1804350;77;21522;-77
2022/09/26 07:38:15;;;;;;;10.18;9.03;;;;;;;11.78;82.78;99315.59;1777717;77;22300;-83
2022/09/26 07:40:42;;;;;;;10.53;8.58;;;;;;;11.73;83.04;99314.50;1779798;79;20987;-81
2022/09/26 07:43:10;;;;;;;11.05;8.45;;;;;;;11.78;82.79;99311.59;1811946;77;21073;-80
2022/09/26 07:51:19;;;;;;;9.95;8.95;;;;;;;11.90;82.13;99294.67;1807516;79;21276;-78
2022/09/26 07:53:48;;;;;;;13.00;8.45;;;;;;;11.87;81.80;99292.85;1807693;77;21554;-76
2022/09/26 07:56:33;;;;;;;10.28;9.08;;;;;;;11.94;81.67;99305.77;1746483;80;21645;-78
2022/09/26 07:59:04;;;;;;;11.88;8.88;;;;;;;12.07;81.33;99297.08;1798588;77;22247;-77
2022/09/26 08:01:39;;;;;;;10.98;9.73;;;;;;;12.06;81.38;99293.61;1792248;77;21055;-76
2022/09/26 08:04:12;;;;;;;14.28;10.48;;;;;;;12.08;81.52;99290.77;1795001;77;21070;-76
2022/09/26 08:06:39;;;;;;;11.12;9.18;;;;;;;12.08;81.35;99292.91;1801517;77;21015;-75
2022/09/26 08:09:07;;;;;;;9.58;8.68;;;;;;;12.16;80.97;99292.78;1824055;77;21885;-77
2022/09/26 08:11:50;;;;;;;11.97;9.25;;;;;;;12.26;79.92;99299.13;1793275;77;21057;-76
2022/09/26 08:14:29;;;;;;;10.40;9.30;;;;;;;12.20;80.02;99299.89;1804574;77;21005;-74
2022/09/26 08:16:58;;;;;;;10.43;9.33;;;;;;;12.14;80.27;99296.14;1809383;79;21272;-76
2022/09/26 08:19:24;;;;;;;12.23;9.85;;;;;;;12.12;80.34;99302.16;1811939;77;21478;-77
2022/09/26 08:22:16;;;;;;;11.45;10.13;;;;;;;12.24;80.11;99301.67;1786832;78;21201;-81
2022/09/26 08:24:48;;;;;;;14.40;11.03;;;;;;;12.28;79.76;99297.61;1813723;77;21052;-78
2022/09/26 08:27:21;;;;;;;10.88;9.78;;;;;;;12.26;80.14;99292.98;1800047;77;21659;-78
2022/09/26 08:29:49;;;;;;;13.55;9.88;;;;;;;12.28;79.92;99290.44;1813603;79;21042;-79
2022/09/26 08:32:18;;;;;;;14.55;10.35;;;;;;;12.34;79.93;99291.52;1810874;77;21077;-79
2022/09/26 08:34:45;;;;;;;20.80;12.85;;;;;;;12.49;80.18;99292.79;1811837;77;21116;-76
2022/09/26 08:37:32;;;;;;;18.95;13.72;;;;;;;12.57;79.54;99288.65;1790607;79;21615;-76
2022/09/26 08:40:18;;;;;;;22.73;15.83;;;;;;;12.56;79.85;99289.16;1812132;77;21155;-76
2022/09/26 08:43:13;;;;;;;26.70;17.42;;;;;;;12.59;79.60;99288.80;1776572;77;21018;-77
2022/09/26 08:49:24;;;;;;;27.67;17.50;;;;;;;12.86;80.21;99279.65;1756067;77;21093;-78
2022/09/26 08:51:51;;;;;;;29.67;17.90;;;;;;;13.12;80.00;99279.02;1807631;77;21007;-78
2022/09/26 08:54:40;;;;;;;28.47;17.00;;;;;;;13.25;80.03;99283.61;1801629;77;21050;-77
2022/09/26 08:57:33;;;;;;;34.53;19.35;;;;;;;13.36;78.77;99276.40;1817893;77;21011;-76
2022/09/26 09:00:09;;;;;;;33.92;18.35;;;;;;;13.49;79.14;99280.17;1801422;77;21018;-77
2022/09/26 09:02:52;;;;;;;33.65;16.77;;;;;;;13.76;78.49;99272.57;1805387;77;21117;-78
2022/09/26 09:05:31;;;;;;;22.50;14.55;;;;;;;14.20;77.17;99266.42;1788659;77;21003;-78
2022/09/26 09:07:58;;;;;;;32.00;17.37;;;;;;;14.52;76.89;99270.66;1801542;77;22651;-78
2022/09/26 09:10:45;;;;;;;24.35;15.60;;;;;;;14.72;76.58;99275.53;1810967;77;21450;-79
2022/09/26 09:13:45;;;;;;;20.30;14.23;;;;;;;14.97;76.31;99276.23;1802414;77;20998;-78
2022/09/26 09:16:44;;;;;;;14.30;11.88;;;;;;;15.10;73.64;99272.20;1765650;77;21142;-80
2022/09/26 09:19:39;;;;;;;21.82;14.43;;;;;;;15.11;73.25;99270.34;1716506;79;21545;-78
2022/09/26 09:22:25;;;;;;;17.35;11.97;;;;;;;15.06;73.57;99258.91;1765369;77;21031;-77
2022/09/26 09:25:05;;;;;;;22.32;12.78;;;;;;;15.11;72.93;99271.16;1803668;77;20990;-77
2022/09/26 09:27:43;;;;;;;;;;;;;;;15.11;73.02;99276.51;1782498;77;21007;-78
2022/09/26 09:30:28;;;;;;;12.37;10.95;;;;;;;15.03;73.04;99277.26;1750940;79;21717;-78
2022/09/26 09:33:04;;;;;;;13.83;12.13;;;;;;;14.89;73.15;99279.95;1723776;80;21514;-77
2022/09/26 09:35:48;;;;;;;14.63;13.08;;;;;;;14.81;72.74;99281.47;1725885;80;21145;-76
2022/09/26 09:38:36;;;;;;;13.85;12.30;;;;;;;14.70;73.21;99276.25;1713736;81;21106;-80
2022/09/26 09:41:10;;;;;;;14.60;11.25;;;;;;;14.57;73.77;99274.91;1707342;81;21069;-80
2022/09/26 09:43:58;;;;;;;14.73;11.10;;;;;;;14.52;74.00;99275.48;1736483;80;21074;-80
2022/09/26 09:46:33;;;;;;;12.75;11.33;;;;;;;14.63;74.09;99271.41;1735947;80;21042;-76
2022/09/26 09:49:21;;;;;;;15.75;11.55;;;;;;;14.71;73.24;99276.55;1734168;81;21066;-76
2022/09/26 09:52:22;;;;;;;14.03;12.55;;;;;;;14.68;73.53;99274.30;1745878;79;21055;-78
2022/09/26 09:55:02;;;;;;;15.18;13.10;;;;;;;14.64;74.01;99269.06;1720518;80;21097;-76
2022/09/26 09:57:52;;;;;;;12.60;10.88;;;;;;;14.70;74.02;99273.58;1715091;82;21150;-77
2022/09/26 10:00:23;;;;;;;15.48;12.93;;;;;;;14.79;74.50;99271.50;1714898;82;21059;-76
2022/09/26 10:03:22;;;;;;;12.58;10.65;;;;;;;14.91;75.39;99265.00;1722157;80;21149;-76
2022/09/26 10:05:59;;;;;;;15.25;11.80;;;;;;;15.12;74.38;99269.30;1664571;85;21094;-76
2022/09/26 10:08:32;;;;;;;13.93;11.55;;;;;;;15.30;74.43;99266.79;1669515;84;21105;-77
2022/09/26 10:11:32;;;;;;;15.18;11.68;;;;;;;15.41;74.59;99253.25;1740108;79;21166;-77
2022/09/26 10:14:15;;;;;;;14.58;11.88;;;;;;;15.56;74.02;99246.30;1757266;79;21007;-78
2022/09/26 10:17:10;;;;;;;13.45;11.60;;;;;;;15.72;73.29;99245.84;1792300;77;21522;-78
2022/09/26 10:19:43;;;;;;;12.75;10.98;;;;;;;15.88;72.73;99236.50;1788752;77;21017;-76
2022/09/26 10:22:36;;;;;;;11.08;9.95;;;;;;;16.05;71.76;99230.13;1801811;77;21051;-77
2022/09/26 10:25:07;;;;;;;13.75;10.03;;;;;;;16.29;71.94;99239.74;1785453;77;21414;-77
2022/09/26 10:27:41;;;;;;;15.23;11.22;;;;;;;16.66;72.10;99236.64;1803747;78;21038;-77
2022/09/26 10:30:20;;;;;;;13.35;10.10;;;;;;;17.01;71.31;99235.31;1769180;80;21568;-76
2022/09/26 10:32:57;;;;;;;12.00;9.40;;;;;;;17.41;71.39;99222.27;1804484;77;21605;-75
2022/09/26 10:35:44;;;;;;;9.70;8.85;;;;;;;17.88;69.05;99220.34;1795478;77;21061;-81
2022/09/26 10:38:21;;;;;;;12.37;8.60;;;;;;;18.39;65.84;99212.23;1799737;77;21110;-82
2022/09/26 10:40:56;;;;;;;9.38;8.40;;;;;;;19.11;64.32;99209.03;1787354;77;21743;-84
2022/09/26 10:43:33;;;;;;;8.38;7.33;;;;;;;20.07;63.89;99193.62;1804452;77;20975;-81
2022/09/26 10:46:15;;;;;;;10.48;7.95;;;;;;;21.23;62.55;99196.16;1804411;78;21011;-82
2022/09/26 10:48:55;;;;;;;8.30;7.50;;;;;;;22.24;62.08;99186.69;1799998;77;21062;-83
2022/09/26 10:51:43;;;;;;;7.72;6.95;;;;;;;23.42;58.79;99199.61;1769091;79;21225;-82
2022/09/26 10:54:15;;;;;;;7.75;7.03;;;;;;;24.31;54.55;99188.91;1805193;77;21542;-81
2022/09/26 10:56:46;;;;;;;7.78;6.92;;;;;;;24.56;51.73;99187.85;1808759;77;21105;-81
2022/09/26 10:59:15;;;;;;;9.38;7.25;;;;;;;24.49;52.03;99185.37;1786717;79;21006;-81
2022/09/26 11:01:45;;;;;;;7.55;6.67;;;;;;;24.44;51.83;99182.12;1812523;78;21087;-81
2022/09/26 11:07:43;;;;;;;7.58;6.75;;;;;;;25.01;50.74;99177.95;1796565;79;21018;-77
2022/09/26 11:10:41;;;;;;;10.18;6.78;;;;;;;25.20;47.72;99177.60;1740300;77;21069;-77
2022/09/26 11:13:26;;;;;;;6.65;6.05;;;;;;;24.89;49.49;99172.28;1772351;77;21166;-79
2022/09/26 11:16:02;;;;;;;7.37;6.67;;;;;;;24.61;48.05;99168.30;1781390;77;21503;-76
2022/09/26 11:18:58;;;;;;;8.33;6.60;;;;;;;24.09;49.24;99162.06;1776947;79;21134;-75
2022/09/26 11:21:47;;;;;;;7.12;6.42;;;;;;;23.62;49.35;99165.77;1777836;77;21093;-78
2022/09/26 11:27:27;;;;;;;7.80;6.90;;;;;;;23.03;50.54;99155.30;1830382;76;22589;-77
2022/09/26 11:30:13;;;;;;;6.97;6.00;;;;;;;22.72;50.94;99155.11;1807282;76;21100;-78
2022/09/26 11:32:51;;;;;;;9.00;6.87;;;;;;;22.47;51.74;99157.13;1769918;76;21865;-78
2022/09/26 11:35:42;;;;;;;7.50;6.78;;;;;;;22.75;53.11;99155.92;1815337;76;21073;-76
2022/09/26 11:38:38;;;;;;;10.63;9.13;;;;;;;23.52;53.67;99154.91;1802024;76;21100;-78
2022/09/26 11:41:35;;;;;;;9.38;8.48;;;;;;;24.03;51.78;99155.02;1789763;76;21131;-80
2022/09/26 11:44:20;;;;;;;10.65;9.48;;;;;;;24.26;51.75;99152.81;1818464;76;21548;-75
2022/09/26 11:47:38;;;;;;;9.28;8.35;;;;;;;24.40;51.72;99155.27;1711188;81;21154;-78
2022/09/26 11:50:22;;;;;;;9.90;9.00;;;;;;;24.49;51.43;99152.79;1778337;76;21065;-78
2022/09/26 11:53:14;;;;;;;10.32;8.85;;;;;;;24.48;50.98;99155.25;1814599;76;21024;-74
2022/09/26 11:56:28;;;;;;;10.00;8.53;;;;;;;24.31;50.83;99152.82;1808770;76;21360;-75
2022/09/26 11:59:09;;;;;;;12.05;8.38;;;;;;;24.13;50.40;99149.58;1811403;76;21096;-76
2022/09/26 12:02:06;;;;;;;11.05;9.78;;;;;;;23.78;50.84;99154.94;1790901;76;21543;-77
2022/09/26 12:05:23;;;;;;;13.88;9.88;;;;;;;23.57;51.19;99156.83;1819011;77;21158;-75
2022/09/26 12:08:20;;;;;;;11.00;9.73;;;;;;;23.33;51.29;99160.00;1811887;76;21498;-74
2022/09/26 12:11:36;;;;;;;12.60;9.95;;;;;;;23.03;51.94;99162.07;1820658;76;21069;-74
2022/09/26 12:14:15;;;;;;;11.97;9.80;;;;;;;22.67;52.08;99153.72;1814165;76;21044;-73
2022/09/26 12:16:57;;;;;;;13.62;10.08;;;;;;;22.34;52.97;99157.83;1817259;76;21799;-73
2022/09/26 12:19:32;;;;;;;11.57;9.80;;;;;;;22.07;53.41;99157.06;1816086;76;21043;-77
2022/09/26 12:22:28;;;;;;;10.88;9.78;;;;;;;21.76;53.93;99153.53;1820125;76;20989;-78
2022/09/26 12:25:31;;;;;;;12.90;10.20;;;;;;;21.50;54.73;99153.00;1829149;78;21131;-78
2022/09/26 12:28:15;;;;;;;11.90;10.68;;;;;;;21.29;55.21;99147.36;1809711;76;21082;-76